createdAt,value
2022-11-03T00:01:36.249Z,4.13
2022-11-03T00:04:05.310Z,4.60
2022-11-03T00:06:32.515Z,4.13
2022-11-03T00:09:01.303Z,3.20
2022-11-03T00:11:28.601Z,3.77
2022-11-03T00:13:56.917Z,3.83
2022-11-03T00:16:23.826Z,3.80
2022-11-03T00:18:53.350Z,4.30
2022-11-03T00:21:22.066Z,3.80
2022-11-03T00:23:49.444Z,3.30
2022-11-03T00:26:22.254Z,3.70
2022-11-03T00:28:51.246Z,3.63
2022-11-03T00:31:20.885Z,3.70
2022-11-03T00:33:48.826Z,4.13
2022-11-03T00:36:18.633Z,4.23
2022-11-03T00:38:45.832Z,3.57
2022-11-03T00:41:13.828Z,3.57
2022-11-03T00:43:41.425Z,3.93
2022-11-03T00:46:09.552Z,3.70
2022-11-03T00:48:37.624Z,3.80
2022-11-03T00:51:22.736Z,3.20
2022-11-03T00:53:55.159Z,4.10
2022-11-03T00:56:33.128Z,3.83
2022-11-03T00:59:01.207Z,3.80
2022-11-03T01:01:42.207Z,3.50
2022-11-03T01:04:31.021Z,3.83
2022-11-03T01:07:00.327Z,4.37
2022-11-03T01:09:38.733Z,3.63
2022-11-03T01:12:12.970Z,4.17
2022-11-03T01:14:44.407Z,3.30
2022-11-03T01:17:20.259Z,3.80
2022-11-03T01:19:47.509Z,3.70
2022-11-03T01:22:15.712Z,3.37
2022-11-03T01:24:43.808Z,3.33
2022-11-03T01:27:15.926Z,3.77
2022-11-03T01:29:43.438Z,3.30
2022-11-03T01:32:11.081Z,3.20
2022-11-03T01:34:38.752Z,3.83
2022-11-03T01:37:06.233Z,4.50
2022-11-03T01:39:33.830Z,3.73
2022-11-03T01:42:00.786Z,4.53
2022-11-03T01:44:31.453Z,3.90
2022-11-03T01:47:29.418Z,4.57
2022-11-03T01:50:02.108Z,5.43
2022-11-03T01:52:38.663Z,3.40
2022-11-03T01:55:13.146Z,4.23
2022-11-03T01:57:45.483Z,3.73
2022-11-03T02:00:13.316Z,3.70
2022-11-03T02:02:41.618Z,3.87
2022-11-03T02:05:12.993Z,4.27
2022-11-03T02:08:04.721Z,3.50
2022-11-03T02:10:32.049Z,3.30
2022-11-03T02:12:59.390Z,3.13
2022-11-03T02:15:26.882Z,2.97
2022-11-03T02:17:55.901Z,3.43
2022-11-03T02:20:29.816Z,3.80
2022-11-03T02:23:22.081Z,3.60
2022-11-03T02:25:53.398Z,3.80
2022-11-03T02:28:26.992Z,3.67
2022-11-03T02:31:06.845Z,3.80
2022-11-03T02:33:49.459Z,4.00
2022-11-03T02:36:26.921Z,3.57
2022-11-03T02:39:19.443Z,4.27
2022-11-03T02:41:48.534Z,3.43
2022-11-03T02:44:18.918Z,3.63
2022-11-03T02:46:50.676Z,4.07
2022-11-03T02:49:17.625Z,3.80
2022-11-03T02:51:44.890Z,4.37
2022-11-03T02:54:26.293Z,3.87
2022-11-03T02:57:06.042Z,4.07
2022-11-03T02:59:54.431Z,3.80
2022-11-03T03:02:28.573Z,4.23
2022-11-03T03:04:57.837Z,3.77
2022-11-03T03:07:38.842Z,4.03
2022-11-03T03:10:10.809Z,4.90
2022-11-03T03:12:41.804Z,3.90
2022-11-03T03:15:09.535Z,4.20
2022-11-03T03:17:56.257Z,4.70
2022-11-03T03:20:32.839Z,4.37
2022-11-03T03:23:18.837Z,4.90
2022-11-03T03:26:01.771Z,4.67
2022-11-03T03:28:40.736Z,4.23
2022-11-03T03:31:12.271Z,5.43
2022-11-03T03:33:43.398Z,5.30
2022-11-03T03:36:17.100Z,5.37
2022-11-03T03:38:53.410Z,5.50
2022-11-03T03:41:22.281Z,4.90
2022-11-03T03:43:55.331Z,5.23
2022-11-03T03:46:26.700Z,5.20
2022-11-03T03:48:53.699Z,5.87
2022-11-03T03:51:25.595Z,6.17
2022-11-03T03:53:54.707Z,6.03
2022-11-03T03:56:30.331Z,6.37
2022-11-03T03:58:57.267Z,6.10
2022-11-03T04:01:24.422Z,6.27
2022-11-03T04:03:51.436Z,5.83
2022-11-03T04:06:18.357Z,6.30
2022-11-03T04:08:45.734Z,7.13
2022-11-03T04:11:31.355Z,6.87
2022-11-03T04:14:16.975Z,6.40
2022-11-03T04:17:02.711Z,7.10
2022-11-03T04:19:48.347Z,7.83
2022-11-03T04:22:18.391Z,9.43
2022-11-03T04:24:47.576Z,11.00
2022-11-03T04:27:38.181Z,7.87
2022-11-03T04:30:17.670Z,7.50
2022-11-03T04:32:46.572Z,6.23
2022-11-03T04:35:17.993Z,6.17
2022-11-03T04:37:48.283Z,10.80
2022-11-03T04:40:16.984Z,10.90
2022-11-03T04:42:45.085Z,9.73
2022-11-03T04:45:31.694Z,7.33
2022-11-03T04:48:01.816Z,7.83
2022-11-03T04:50:28.763Z,6.03
2022-11-03T04:52:57.929Z,6.50
2022-11-03T04:55:25.503Z,11.67
2022-11-03T04:58:00.430Z,9.93
2022-11-03T05:00:27.475Z,8.63
2022-11-03T05:02:56.224Z,12.17
2022-11-03T05:05:26.432Z,11.40
2022-11-03T05:07:56.713Z,12.80
2022-11-03T05:10:29.549Z,16.73
2022-11-03T05:12:57.745Z,18.07
2022-11-03T05:15:37.220Z,9.97
2022-11-03T05:18:21.882Z,9.13
2022-11-03T05:20:58.134Z,9.23
2022-11-03T05:23:27.231Z,10.63
2022-11-03T05:25:56.613Z,12.83
2022-11-03T05:28:23.479Z,10.40
2022-11-03T05:30:51.451Z,9.60
2022-11-03T05:33:27.450Z,9.13
2022-11-03T05:35:55.834Z,9.53
2022-11-03T05:38:23.933Z,10.07
2022-11-03T05:40:53.347Z,8.53
2022-11-03T05:43:21.204Z,11.30
2022-11-03T05:45:51.646Z,10.37
2022-11-03T05:48:32.582Z,11.70
2022-11-03T05:51:01.108Z,10.50
2022-11-03T05:53:35.890Z,8.27
2022-11-03T05:56:05.721Z,9.83
2022-11-03T05:58:37.059Z,10.23
2022-11-03T06:01:18.904Z,11.80
2022-11-03T06:03:47.369Z,15.20
2022-11-03T06:06:32.044Z,16.70
2022-11-03T06:09:02.970Z,14.60
2022-11-03T06:11:36.189Z,13.43
2022-11-03T06:14:24.305Z,12.07
2022-11-03T06:17:06.199Z,13.50
2022-11-03T06:19:36.576Z,13.07
2022-11-03T06:22:20.385Z,10.57
2022-11-03T06:24:47.893Z,10.93
2022-11-03T06:27:18.861Z,15.60
2022-11-03T06:29:53.378Z,11.87
2022-11-03T06:32:20.660Z,10.57
2022-11-03T06:34:50.564Z,9.33
2022-11-03T06:37:31.154Z,10.43
2022-11-03T06:40:11.060Z,11.73
2022-11-03T06:42:40.115Z,13.07
2022-11-03T06:45:20.524Z,13.47
2022-11-03T06:47:48.096Z,15.07
2022-11-03T06:50:22.666Z,15.10
2022-11-03T06:52:50.168Z,15.10
2022-11-03T06:55:30.082Z,10.80
2022-11-03T06:58:16.433Z,12.50
2022-11-03T07:00:48.859Z,10.23
2022-11-03T07:03:30.891Z,13.43
2022-11-03T07:06:07.160Z,11.87
2022-11-03T07:08:43.891Z,12.50
2022-11-03T07:11:20.504Z,10.87
2022-11-03T07:13:50.168Z,11.67
2022-11-03T07:16:23.635Z,11.80
2022-11-03T07:18:50.586Z,10.87
2022-11-03T07:21:29.688Z,10.20
2022-11-03T07:24:00.158Z,10.07
2022-11-03T07:26:27.933Z,10.47
2022-11-03T07:28:55.312Z,12.10
2022-11-03T07:31:26.549Z,12.90
2022-11-03T07:34:02.527Z,11.97
2022-11-03T07:36:32.401Z,12.07
2022-11-03T07:39:01.857Z,11.67
2022-11-03T07:41:34.459Z,13.87
2022-11-03T07:44:02.612Z,12.13
2022-11-03T07:46:29.635Z,12.00
2022-11-03T07:49:02.853Z,11.30
2022-11-03T07:51:33.515Z,12.87
2022-11-03T07:54:24.072Z,12.00
2022-11-03T07:57:00.875Z,11.00
2022-11-03T07:59:33.736Z,10.43
2022-11-03T08:02:01.828Z,10.27
2022-11-03T08:04:31.882Z,9.43
2022-11-03T08:06:59.087Z,9.10
2022-11-03T08:09:26.357Z,9.43
2022-11-03T08:11:53.918Z,9.20
2022-11-03T08:14:20.907Z,9.37
2022-11-03T08:16:48.155Z,10.20
2022-11-03T08:19:15.169Z,10.97
2022-11-03T08:21:42.112Z,11.87
2022-11-03T08:24:09.236Z,12.13
2022-11-03T08:26:36.173Z,11.20
2022-11-03T08:29:03.145Z,11.10
2022-11-03T08:31:30.135Z,12.17
2022-11-03T08:33:57.207Z,12.60
2022-11-03T08:36:24.201Z,13.97
2022-11-03T08:38:51.480Z,12.97
2022-11-03T08:41:18.406Z,14.17
2022-11-03T08:43:45.437Z,14.97
2022-11-03T08:46:17.703Z,15.80
2022-11-03T08:48:46.110Z,15.83
2022-11-03T08:51:14.572Z,16.60
2022-11-03T08:53:44.917Z,16.70
2022-11-03T08:56:14.438Z,16.47
2022-11-03T08:58:44.254Z,16.57
2022-11-03T09:01:11.509Z,16.07
2022-11-03T09:03:39.273Z,16.93
2022-11-03T09:06:07.500Z,18.70
2022-11-03T09:11:21.434Z,17.80
2022-11-03T09:13:48.449Z,17.00
2022-11-03T09:16:15.354Z,17.03
2022-11-03T09:18:42.344Z,21.77
2022-11-03T09:21:09.341Z,17.07
2022-11-03T09:23:36.363Z,16.57
2022-11-03T09:26:03.357Z,16.37
2022-11-03T09:28:30.302Z,15.70
2022-11-03T09:30:57.245Z,16.07
2022-11-03T09:33:24.253Z,16.17
2022-11-03T09:35:51.261Z,16.53
2022-11-03T09:38:18.163Z,15.93
2022-11-03T09:40:45.245Z,15.37
2022-11-03T09:43:12.330Z,16.33
2022-11-03T09:45:39.744Z,16.90
2022-11-03T09:48:10.842Z,18.07
2022-11-03T09:50:38.527Z,16.03
2022-11-03T09:53:06.132Z,17.10
2022-11-03T09:55:34.911Z,18.17
2022-11-03T09:58:09.641Z,16.90
2022-11-03T10:00:36.653Z,21.00
2022-11-03T10:03:05.304Z,17.03
2022-11-03T10:05:33.638Z,16.90
2022-11-03T10:08:07.178Z,16.30
2022-11-03T10:10:35.804Z,15.17
2022-11-03T10:13:02.756Z,15.33
2022-11-03T10:15:29.769Z,14.50
2022-11-03T10:17:57.394Z,13.80
2022-11-03T10:20:24.494Z,13.23
2022-11-03T10:22:53.705Z,13.73
2022-11-03T10:25:38.501Z,14.70
2022-11-03T10:28:24.601Z,15.83
2022-11-03T10:31:15.220Z,12.97
2022-11-03T10:33:52.355Z,18.13
2022-11-03T10:36:19.317Z,13.23
2022-11-03T10:38:47.891Z,13.07
2022-11-03T10:41:23.332Z,14.07
2022-11-03T10:44:13.188Z,14.70
2022-11-03T10:46:56.532Z,14.63
2022-11-03T10:49:23.467Z,14.77
2022-11-03T10:51:53.147Z,14.23
2022-11-03T10:54:24.113Z,13.07
2022-11-03T10:56:52.750Z,14.73
2022-11-03T10:59:31.914Z,13.93
2022-11-03T11:02:01.141Z,15.43
2022-11-03T11:04:28.487Z,13.53
2022-11-03T11:06:55.876Z,12.73
2022-11-03T11:09:27.890Z,12.83
2022-11-03T11:12:07.323Z,12.93
2022-11-03T11:14:50.930Z,14.00
2022-11-03T11:17:46.999Z,13.27
2022-11-03T11:20:22.382Z,12.30
2022-11-03T11:22:50.634Z,12.17
2022-11-03T11:25:20.846Z,13.43
2022-11-03T11:27:54.184Z,13.80
2022-11-03T11:30:30.574Z,14.13
2022-11-03T11:33:12.914Z,15.30
2022-11-03T11:35:39.869Z,13.90
2022-11-03T11:38:44.090Z,15.40
2022-11-03T11:41:11.135Z,15.90
2022-11-03T11:43:38.125Z,14.10
2022-11-03T11:46:23.371Z,15.37
2022-11-03T11:49:02.393Z,13.87
2022-11-03T11:51:37.757Z,13.67
2022-11-03T11:54:18.186Z,14.97
2022-11-03T11:56:47.826Z,13.80
2022-11-03T11:59:26.149Z,12.63
2022-11-03T12:01:57.363Z,11.70
2022-11-03T12:04:33.409Z,11.45
2022-11-03T12:07:00.546Z,11.63
2022-11-03T12:09:28.581Z,11.90
2022-11-03T12:12:00.775Z,11.40
2022-11-03T12:14:33.423Z,11.73
2022-11-03T12:17:18.988Z,12.03
2022-11-03T12:19:53.500Z,10.40
2022-11-03T12:22:26.453Z,10.33
2022-11-03T12:24:59.137Z,10.50
2022-11-03T12:27:26.274Z,12.13
2022-11-03T12:29:58.327Z,10.23
2022-11-03T12:32:34.595Z,9.47
2022-11-03T12:35:04.150Z,11.68
2022-11-03T12:37:31.231Z,12.13
2022-11-03T12:39:58.125Z,11.40
2022-11-03T12:42:25.671Z,11.37
2022-11-03T12:44:53.207Z,11.17
2022-11-03T12:47:20.579Z,12.97
2022-11-03T12:49:47.509Z,11.80
2022-11-03T12:52:14.531Z,12.23
2022-11-03T12:54:42.498Z,11.70
2022-11-03T12:57:09.894Z,10.37
2022-11-03T12:59:37.013Z,9.50
2022-11-03T13:02:04.245Z,9.70
2022-11-03T13:04:31.445Z,9.30
2022-11-03T13:06:58.419Z,9.65
2022-11-03T13:09:25.403Z,11.53
2022-11-03T13:12:11.121Z,30.53
2022-11-03T13:14:38.013Z,23.73
2022-11-03T13:17:05.340Z,14.30
2022-11-03T13:19:32.274Z,11.10
2022-11-03T13:21:59.215Z,10.57
2022-11-03T13:24:26.137Z,10.57
2022-11-03T13:26:53.257Z,9.90
2022-11-03T13:29:20.193Z,9.40
2022-11-03T13:31:47.240Z,11.17
2022-11-03T13:34:14.325Z,10.23
2022-11-03T13:36:41.261Z,11.23
2022-11-03T13:39:08.381Z,11.83
2022-11-03T13:41:35.582Z,12.48
2022-11-03T13:44:02.830Z,12.33
2022-11-03T13:46:29.835Z,12.33
2022-11-03T13:51:43.896Z,13.77
2022-11-03T13:59:45.125Z,11.93
2022-11-03T14:04:59.462Z,12.73
2022-11-03T14:07:27.134Z,12.53
2022-11-03T14:09:55.900Z,11.90
2022-11-03T14:12:35.124Z,12.87
2022-11-03T14:15:07.811Z,13.27
2022-11-03T14:17:36.073Z,15.43
2022-11-03T14:20:04.994Z,12.43
2022-11-03T14:22:33.005Z,16.63
2022-11-03T14:25:01.193Z,13.20
2022-11-03T14:27:28.628Z,11.93
2022-11-03T14:29:55.703Z,12.70
2022-11-03T14:32:22.760Z,13.97
2022-11-03T14:34:50.148Z,12.33
2022-11-03T14:37:17.512Z,33.07
2022-11-03T14:39:44.487Z,21.47
2022-11-03T14:42:16.033Z,22.00
2022-11-03T14:44:45.161Z,13.53
2022-11-03T14:47:14.292Z,12.03
2022-11-03T14:49:41.379Z,15.87
2022-11-03T14:52:08.746Z,12.50
2022-11-03T14:54:36.555Z,13.90
2022-11-03T14:57:04.545Z,13.23
2022-11-03T14:59:32.035Z,20.37
2022-11-03T15:01:59.746Z,22.57
2022-11-03T15:04:27.313Z,14.87
2022-11-03T15:06:54.646Z,15.53
2022-11-03T15:09:21.796Z,13.70
2022-11-03T15:11:49.407Z,13.13
2022-11-03T15:14:16.317Z,12.97
2022-11-03T15:16:44.861Z,13.23
2022-11-03T15:19:11.864Z,14.80
2022-11-03T15:21:38.947Z,14.07
2022-11-03T15:26:52.995Z,15.60
2022-11-03T15:29:20.305Z,18.33
2022-11-03T15:31:48.407Z,14.40
2022-11-03T15:34:16.453Z,30.10
2022-11-03T15:36:43.698Z,28.43
2022-11-03T15:39:10.608Z,14.53
2022-11-03T15:41:37.601Z,14.83
2022-11-03T15:44:04.608Z,13.40
2022-11-03T15:46:31.585Z,13.57
2022-11-03T15:48:58.506Z,15.53
2022-11-03T15:51:25.538Z,14.07
2022-11-03T15:53:58.214Z,13.83
2022-11-03T15:56:27.152Z,14.13
2022-11-03T15:58:54.281Z,13.80
2022-11-03T16:01:21.500Z,14.90
2022-11-03T16:03:49.045Z,13.77
2022-11-03T16:06:16.520Z,14.27
2022-11-03T16:08:43.689Z,14.03
2022-11-03T16:11:10.730Z,13.63
2022-11-03T16:13:37.840Z,13.80
2022-11-03T16:16:05.350Z,13.17
2022-11-03T16:18:32.335Z,13.87
2022-11-03T16:20:59.436Z,14.03
2022-11-03T16:23:26.423Z,13.57
2022-11-03T16:25:54.135Z,13.23
2022-11-03T16:28:21.417Z,13.93
2022-11-03T16:30:53.859Z,13.13
2022-11-03T16:33:21.196Z,12.90
2022-11-03T16:35:48.275Z,13.93
2022-11-03T16:38:15.594Z,15.27
2022-11-03T16:40:43.177Z,14.03
2022-11-03T16:43:10.732Z,13.40
2022-11-03T16:45:38.343Z,13.73
2022-11-03T16:48:06.967Z,13.23
2022-11-03T16:50:34.901Z,14.30
2022-11-03T16:53:02.183Z,13.60
2022-11-03T16:55:29.148Z,13.40
2022-11-03T16:57:56.156Z,13.57
2022-11-03T17:00:24.358Z,13.53
2022-11-03T17:02:51.517Z,14.80
2022-11-03T17:05:21.000Z,14.53
2022-11-03T17:07:53.305Z,13.53
2022-11-03T17:10:21.038Z,13.87
2022-11-03T17:12:48.001Z,12.97
2022-11-03T17:15:15.074Z,13.63
2022-11-03T17:17:42.003Z,13.73
2022-11-03T17:20:10.761Z,13.40
2022-11-03T17:22:38.045Z,12.83
2022-11-03T17:25:06.926Z,14.07
2022-11-03T17:27:38.807Z,14.20
2022-11-03T17:30:11.356Z,13.93
2022-11-03T17:32:42.739Z,14.00
2022-11-03T17:35:16.505Z,13.60
2022-11-03T17:37:43.551Z,14.40
2022-11-03T17:40:22.206Z,14.63
2022-11-03T17:42:50.148Z,14.53
2022-11-03T17:45:19.776Z,13.90
2022-11-03T17:47:47.165Z,14.70
2022-11-03T17:50:22.956Z,14.30
2022-11-03T17:52:51.316Z,14.97
2022-11-03T17:55:21.533Z,14.43
2022-11-03T17:57:49.041Z,15.47
2022-11-03T18:00:19.722Z,16.50
2022-11-03T18:02:47.117Z,15.80
2022-11-03T18:05:28.889Z,16.40
2022-11-03T18:07:57.061Z,17.03
2022-11-03T18:10:29.863Z,16.60
2022-11-03T18:13:16.647Z,16.43
2022-11-03T18:15:56.496Z,16.00
2022-11-03T18:18:35.418Z,17.73
2022-11-03T18:21:03.006Z,16.67
2022-11-03T18:23:32.488Z,16.93
2022-11-03T18:26:01.684Z,16.33
2022-11-03T18:28:28.741Z,17.47
2022-11-03T18:30:57.015Z,15.93
2022-11-03T18:33:32.270Z,17.57
2022-11-03T18:36:03.328Z,17.07
2022-11-03T18:38:30.818Z,17.13
2022-11-03T18:40:57.787Z,16.93
2022-11-03T18:43:25.584Z,18.40
2022-11-03T18:45:53.016Z,16.97
2022-11-03T18:48:19.959Z,17.17
2022-11-03T18:50:55.569Z,18.47
2022-11-03T18:53:24.964Z,18.00
2022-11-03T18:56:01.185Z,16.83
2022-11-03T18:58:28.167Z,20.90
2022-11-03T19:00:55.362Z,19.27
2022-11-03T19:03:23.645Z,17.87
2022-11-03T19:05:52.903Z,18.93
2022-11-03T19:08:31.481Z,17.70
2022-11-03T19:11:03.976Z,16.27
2022-11-03T19:13:36.315Z,16.53
2022-11-03T19:16:13.337Z,17.07
2022-11-03T19:18:41.895Z,18.80
2022-11-03T19:21:26.086Z,16.97
2022-11-03T19:23:58.086Z,17.70
2022-11-03T19:26:33.854Z,16.80
2022-11-03T19:29:09.142Z,17.03
2022-11-03T19:31:38.801Z,16.57
2022-11-03T19:34:11.418Z,17.20
2022-11-03T19:36:40.329Z,15.63
2022-11-03T19:39:22.661Z,16.13
2022-11-03T19:42:08.365Z,16.67
2022-11-03T19:47:10.670Z,18.13
2022-11-03T19:49:37.823Z,16.43
2022-11-03T19:52:04.946Z,16.03
2022-11-03T19:54:31.965Z,16.97
2022-11-03T19:56:58.920Z,16.67
2022-11-03T19:59:26.081Z,17.93
2022-11-03T20:01:53.079Z,17.07
2022-11-03T20:04:20.238Z,17.57
2022-11-03T20:06:47.255Z,16.83
2022-11-03T20:09:19.034Z,18.13
2022-11-03T20:11:46.264Z,16.23
2022-11-03T20:14:19.381Z,16.63
2022-11-03T20:16:46.373Z,15.77
2022-11-03T20:19:13.271Z,15.50
2022-11-03T20:21:41.137Z,15.67
2022-11-03T20:24:10.052Z,14.53
2022-11-03T20:26:37.212Z,16.77
2022-11-03T20:29:10.328Z,15.07
2022-11-03T20:31:37.261Z,14.93
2022-11-03T20:34:04.706Z,14.33
2022-11-03T20:36:33.494Z,14.83
2022-11-03T20:39:04.432Z,15.47
2022-11-03T20:41:32.238Z,15.10
2022-11-03T20:43:59.497Z,15.50
2022-11-03T20:46:32.826Z,15.03
2022-11-03T20:49:00.017Z,15.00
2022-11-03T20:51:32.614Z,15.63
2022-11-03T20:53:59.646Z,14.07
2022-11-03T20:56:28.530Z,15.13
2022-11-03T20:58:55.955Z,15.10
2022-11-03T21:01:33.316Z,16.10
2022-11-03T21:04:02.274Z,15.50
2022-11-03T21:06:31.892Z,14.57
2022-11-03T21:08:59.195Z,15.97
2022-11-03T21:11:29.210Z,15.90
2022-11-03T21:14:02.894Z,14.70
2022-11-03T21:16:48.898Z,14.73
2022-11-03T21:19:40.567Z,15.20
2022-11-03T21:22:54.331Z,14.77
2022-11-03T21:25:23.357Z,15.87
2022-11-03T21:27:51.154Z,15.50
2022-11-03T21:30:19.154Z,14.17
2022-11-03T21:32:46.338Z,14.27
2022-11-03T21:35:22.493Z,15.53
2022-11-03T21:37:49.457Z,15.13
2022-11-03T21:40:16.790Z,15.50
2022-11-03T21:43:02.349Z,15.83
2022-11-03T21:45:29.349Z,14.83
2022-11-03T21:48:15.364Z,16.97
2022-11-03T21:50:43.363Z,16.77
2022-11-03T21:53:11.066Z,15.07
2022-11-03T21:55:38.640Z,15.07
2022-11-03T21:58:06.242Z,16.50
2022-11-03T22:00:33.599Z,15.50
2022-11-03T22:03:01.146Z,15.80
2022-11-03T22:05:28.538Z,15.13
2022-11-03T22:07:55.868Z,16.07
2022-11-03T22:10:22.850Z,14.77
2022-11-03T22:12:49.796Z,15.20
2022-11-03T22:15:35.226Z,14.63
2022-11-03T22:18:06.249Z,14.67
2022-11-03T22:20:52.337Z,14.40
2022-11-03T22:23:37.891Z,14.23
2022-11-03T22:26:23.718Z,17.40
2022-11-03T22:29:10.658Z,15.00
2022-11-03T22:31:43.282Z,14.60
2022-11-03T22:34:29.329Z,14.33
2022-11-03T22:36:56.581Z,12.63
2022-11-03T22:39:42.160Z,12.50
2022-11-03T22:42:30.845Z,13.53
2022-11-03T22:45:16.523Z,12.73
2022-11-03T22:47:43.519Z,13.07
2022-11-03T22:50:10.688Z,11.73
2022-11-03T22:52:37.576Z,13.33
2022-11-03T22:55:04.894Z,12.40
2022-11-03T22:57:31.775Z,12.10
2022-11-03T22:59:58.781Z,12.97
2022-11-03T23:02:25.795Z,13.40
2022-11-03T23:04:52.882Z,13.60
2022-11-03T23:07:19.811Z,14.63
2022-11-03T23:09:46.771Z,12.87
2022-11-03T23:12:13.779Z,13.97
2022-11-03T23:14:59.192Z,14.03
2022-11-03T23:17:46.051Z,13.60
2022-11-03T23:20:31.502Z,14.77
2022-11-03T23:22:58.384Z,11.87
2022-11-03T23:25:25.435Z,11.77
2022-11-03T23:27:53.173Z,11.13
2022-11-03T23:30:20.200Z,9.83
2022-11-03T23:32:47.184Z,10.17
2022-11-03T23:35:14.737Z,10.50
2022-11-03T23:37:41.750Z,8.53
2022-11-03T23:40:09.141Z,8.07
2022-11-03T23:42:36.239Z,6.80
2022-11-03T23:45:21.711Z,5.73
2022-11-03T23:48:08.155Z,6.43
2022-11-03T23:50:35.291Z,5.90
2022-11-03T23:53:02.329Z,5.67
2022-11-03T23:55:49.222Z,5.30
2022-11-03T23:58:19.092Z,5.63
